sensor_id;sensor_type;location;lat;lon;timestamp;pressure;altitude;pressure_sealevel;temperature;humidity
47104;BME280;32853;52.164;5.400;2022-11-20T00:01:31;101348.31;;;1.06;100.00
47104;BME280;32853;52.164;5.400;2022-11-20T00:03:57;101261.19;;;0.47;100.00
47104;BME280;32853;52.164;5.400;2022-11-20T00:06:44;101341.53;;;1.19;100.00
47104;BME280;32853;52.164;5.400;2022-11-20T00:09:20;101346.59;;;1.05;100.00
47104;BME280;32853;52.164;5.400;2022-11-20T00:11:45;101355.19;;;1.06;100.00
47104;BME280;32853;52.164;5.400;2022-11-20T00:14:11;101314.69;;;0.88;100.00
47104;BME280;32853;52.164;5.400;2022-11-20T00:17:05;101338.00;;;1.02;100.00
47104;BME280;32853;52.164;5.400;2022-11-20T00:19:46;101247.56;;;0.56;100.00
47104;BME280;32853;52.164;5.400;2022-11-20T00:22:11;101350.00;;;1.01;100.00
47104;BME280;32853;52.164;5.400;2022-11-20T00:24:46;101351.66;;;0.92;100.00
47104;BME280;32853;52.164;5.400;2022-11-20T00:27:12;101106.91;;;-0.53;100.00
47104;BME280;32853;52.164;5.400;2022-11-20T00:29:37;101355.13;;;0.98;100.00
47104;BME280;32853;52.164;5.400;2022-11-20T00:32:02;101245.59;;;0.31;100.00
47104;BME280;32853;52.164;5.400;2022-11-20T00:34:28;101333.56;;;0.84;100.00
47104;BME280;32853;52.164;5.400;2022-11-20T00:36:53;101182.63;;;-0.17;100.00
47104;BME280;32853;52.164;5.400;2022-11-20T00:39:18;101331.75;;;0.74;100.00
47104;BME280;32853;52.164;5.400;2022-11-20T00:41:43;101294.59;;;0.43;100.00
47104;BME280;32853;52.164;5.400;2022-11-20T00:44:09;101296.28;;;0.41;100.00
47104;BME280;32853;52.164;5.400;2022-11-20T00:46:34;101185.19;;;-0.16;100.00
47104;BME280;32853;52.164;5.400;2022-11-20T00:49:02;101231.69;;;0.09;100.00
47104;BME280;32853;52.164;5.400;2022-11-20T00:51:28;101239.47;;;0.13;100.00
47104;BME280;32853;52.164;5.400;2022-11-20T00:53:58;101334.31;;;0.69;100.00
47104;BME280;32853;52.164;5.400;2022-11-20T00:56:25;101274.94;;;0.49;100.00
47104;BME280;32853;52.164;5.400;2022-11-20T00:58:51;101312.94;;;0.81;100.00
47104;BME280;32853;52.164;5.400;2022-11-20T01:01:29;101314.59;;;0.77;100.00
47104;BME280;32853;52.164;5.400;2022-11-20T01:03:57;101283.69;;;0.70;100.00
47104;BME280;32853;52.164;5.400;2022-11-20T01:06:28;101256.19;;;0.66;100.00
47104;BME280;32853;52.164;5.400;2022-11-20T01:09:14;101311.31;;;0.95;100.00
47104;BME280;32853;52.164;5.400;2022-11-20T01:11:43;101245.84;;;0.56;100.00
47104;BME280;32853;52.164;5.400;2022-11-20T01:14:12;101314.81;;;1.00;100.00
47104;BME280;32853;52.164;5.400;2022-11-20T01:16:40;101313.06;;;0.98;100.00
47104;BME280;32853;52.164;5.400;2022-11-20T01:19:11;101057.91;;;-0.74;100.00
47104;BME280;32853;52.164;5.400;2022-11-20T01:21:54;101319.03;;;0.91;100.00
47104;BME280;32853;52.164;5.400;2022-11-20T01:24:21;101258.75;;;0.64;100.00
47104;BME280;32853;52.164;5.400;2022-11-20T01:26:48;101265.44;;;0.44;100.00
47104;BME280;32853;52.164;5.400;2022-11-20T01:29:22;101187.19;;;0.13;100.00
47104;BME280;32853;52.164;5.400;2022-11-20T01:31:51;101309.53;;;0.88;100.00
47104;BME280;32853;52.164;5.400;2022-11-20T01:34:34;101308.66;;;0.84;100.00
47104;BME280;32853;52.164;5.400;2022-11-20T01:37:02;101209.41;;;0.11;100.00
47104;BME280;32853;52.164;5.400;2022-11-20T01:39:28;101155.13;;;-0.23;100.00
47104;BME280;32853;52.164;5.400;2022-11-20T01:42:38;101298.28;;;0.74;100.00
47104;BME280;32853;52.164;5.400;2022-11-20T01:48:36;101302.47;;;0.56;100.00
47104;BME280;32853;52.164;5.400;2022-11-20T01:54:09;101210.06;;;-0.12;100.00
47104;BME280;32853;52.164;5.400;2022-11-20T01:56:38;101297.25;;;0.50;100.00
47104;BME280;32853;52.164;5.400;2022-11-20T01:59:14;101289.53;;;0.50;100.00
47104;BME280;32853;52.164;5.400;2022-11-20T02:01:40;101285.13;;;0.36;100.00
47104;BME280;32853;52.164;5.400;2022-11-20T02:04:07;101283.44;;;0.41;100.00
47104;BME280;32853;52.164;5.400;2022-11-20T02:06:48;101240.25;;;0.08;100.00
47104;BME280;32853;52.164;5.400;2022-11-20T02:09:36;101297.16;;;0.41;100.00
47104;BME280;32853;52.164;5.400;2022-11-20T02:12:02;101294.47;;;0.27;100.00
47104;BME280;32853;52.164;5.400;2022-11-20T02:14:36;101291.16;;;0.41;100.00
47104;BME280;32853;52.164;5.400;2022-11-20T02:17:10;101298.00;;;0.40;100.00
47104;BME280;32853;52.164;5.400;2022-11-20T02:19:50;101216.22;;;0.03;100.00
47104;BME280;32853;52.164;5.400;2022-11-20T02:22:31;101228.16;;;-0.01;100.00
47104;BME280;32853;52.164;5.400;2022-11-20T02:25:02;101270.44;;;0.22;100.00
47104;BME280;32853;52.164;5.400;2022-11-20T02:27:28;101210.91;;;-0.16;100.00
47104;BME280;32853;52.164;5.400;2022-11-20T02:29:58;101231.59;;;-0.02;100.00
47104;BME280;32853;52.164;5.400;2022-11-20T02:32:26;101268.66;;;0.18;100.00
47104;BME280;32853;52.164;5.400;2022-11-20T02:34:53;101279.13;;;0.40;100.00
47104;BME280;32853;52.164;5.400;2022-11-20T02:37:19;101234.41;;;0.22;100.00
47104;BME280;32853;52.164;5.400;2022-11-20T02:39:47;101274.75;;;0.31;100.00
47104;BME280;32853;52.164;5.400;2022-11-20T02:42:14;101251.59;;;0.28;100.00
47104;BME280;32853;52.164;5.400;2022-11-20T02:44:39;101173.28;;;-0.09;100.00
47104;BME280;32853;52.164;5.400;2022-11-20T02:47:05;101036.91;;;-1.15;100.00
47104;BME280;32853;52.164;5.400;2022-11-20T02:49:30;101275.69;;;0.38;100.00
47104;BME280;32853;52.164;5.400;2022-11-20T02:51:56;101211.88;;;-0.02;100.00
47104;BME280;32853;52.164;5.400;2022-11-20T02:54:21;101208.44;;;-0.02;100.00
47104;BME280;32853;52.164;5.400;2022-11-20T02:56:50;101225.75;;;0.11;100.00
47104;BME280;32853;52.164;5.400;2022-11-20T02:59:15;101214.56;;;0.09;100.00
47104;BME280;32853;52.164;5.400;2022-11-20T03:01:43;101234.41;;;0.24;100.00
47104;BME280;32853;52.164;5.400;2022-11-20T03:04:09;101107.63;;;-0.66;100.00
47104;BME280;32853;52.164;5.400;2022-11-20T03:06:42;101250.72;;;0.27;100.00
47104;BME280;32853;52.164;5.400;2022-11-20T03:09:26;101242.13;;;0.22;100.00
47104;BME280;32853;52.164;5.400;2022-11-20T03:11:54;101222.25;;;0.08;100.00
47104;BME280;32853;52.164;5.400;2022-11-20T03:14:19;101240.34;;;0.14;100.00
47104;BME280;32853;52.164;5.400;2022-11-20T03:16:48;101220.56;;;0.08;100.00
47104;BME280;32853;52.164;5.400;2022-11-20T03:19:14;101240.28;;;0.11;100.00
47104;BME280;32853;52.164;5.400;2022-11-20T03:21:45;101237.69;;;0.08;100.00
47104;BME280;32853;52.164;5.400;2022-11-20T03:24:13;101084.44;;;-0.74;100.00
47104;BME280;32853;52.164;5.400;2022-11-20T03:26:39;101143.88;;;-0.34;100.00
47104;BME280;32853;52.164;5.400;2022-11-20T03:29:04;101217.88;;;-0.01;100.00
47104;BME280;32853;52.164;5.400;2022-11-20T03:31:33;101235.97;;;0.08;100.00
47104;BME280;32853;52.164;5.400;2022-11-20T03:34:06;101230.94;;;0.19;100.00
47104;BME280;32853;52.164;5.400;2022-11-20T03:36:32;101207.69;;;0.07;100.00
47104;BME280;32853;52.164;5.400;2022-11-20T03:39:11;101219.66;;;0.02;100.00
47104;BME280;32853;52.164;5.400;2022-11-20T03:41:39;101237.72;;;0.11;100.00
47104;BME280;32853;52.164;5.400;2022-11-20T03:44:07;101232.63;;;0.15;100.00
47104;BME280;32853;52.164;5.400;2022-11-20T03:46:34;101191.28;;;-0.09;100.00
47104;BME280;32853;52.164;5.400;2022-11-20T03:49:00;101225.75;;;0.11;100.00
47104;BME280;32853;52.164;5.400;2022-11-20T03:51:30;101224.00;;;0.10;100.00
47104;BME280;32853;52.164;5.400;2022-11-20T03:53:58;101219.75;;;0.14;100.00
47104;BME280;32853;52.164;5.400;2022-11-20T03:56:39;101196.50;;;0.00;100.00
47104;BME280;32853;52.164;5.400;2022-11-20T03:59:06;101216.31;;;0.13;100.00
47104;BME280;32853;52.164;5.400;2022-11-20T04:01:36;101086.25;;;-0.64;100.00
47104;BME280;32853;52.164;5.400;2022-11-20T04:04:02;101157.63;;;-0.32;100.00
47104;BME280;32853;52.164;5.400;2022-11-20T04:06:35;101044.84;;;-0.94;100.00
47104;BME280;32853;52.164;5.400;2022-11-20T04:09:03;101169.81;;;-0.11;100.00
47104;BME280;32853;52.164;5.400;2022-11-20T04:11:34;101214.53;;;0.08;100.00
47104;BME280;32853;52.164;5.400;2022-11-20T04:14:02;101111.22;;;-0.49;100.00
47104;BME280;32853;52.164;5.400;2022-11-20T04:16:33;101016.50;;;-1.03;100.00
47104;BME280;32853;52.164;5.400;2022-11-20T04:19:08;101160.28;;;-0.23;100.00
47104;BME280;32853;52.164;5.400;2022-11-20T04:21:35;101081.91;;;-0.69;100.00
47104;BME280;32853;52.164;5.400;2022-11-20T04:24:03;101160.34;;;-0.14;100.00
47104;BME280;32853;52.164;5.400;2022-11-20T04:26:33;101115.59;;;-0.40;100.00
47104;BME280;32853;52.164;5.400;2022-11-20T04:28:59;101204.22;;;0.02;100.00
47104;BME280;32853;52.164;5.400;2022-11-20T04:31:31;101050.09;;;-0.82;100.00
47104;BME280;32853;52.164;5.400;2022-11-20T04:34:11;101074.19;;;-0.69;100.00
47104;BME280;32853;52.164;5.400;2022-11-20T04:36:36;101144.06;;;-0.17;100.00
47104;BME280;32853;52.164;5.400;2022-11-20T04:39:38;101200.81;;;0.07;100.00
47104;BME280;32853;52.164;5.400;2022-11-20T04:42:19;101204.28;;;0.09;100.00
47104;BME280;32853;52.164;5.400;2022-11-20T04:44:54;101172.41;;;-0.08;100.00
47104;BME280;32853;52.164;5.400;2022-11-20T04:47:25;101196.53;;;0.06;100.00
47104;BME280;32853;52.164;5.400;2022-11-20T04:49:50;101098.25;;;-0.61;100.00
47104;BME280;32853;52.164;5.400;2022-11-20T04:52:19;101192.16;;;-0.03;100.00
47104;BME280;32853;52.164;5.400;2022-11-20T04:55:06;101188.72;;;-0.05;100.00
47104;BME280;32853;52.164;5.400;2022-11-20T04:57:55;101118.19;;;-0.36;100.00
47104;BME280;32853;52.164;5.400;2022-11-20T05:00:21;101178.41;;;-0.11;100.00
47104;BME280;32853;52.164;5.400;2022-11-20T05:02:49;101182.72;;;-0.04;100.00
47104;BME280;32853;52.164;5.400;2022-11-20T05:05:18;101147.31;;;-0.34;100.00
47104;BME280;32853;52.164;5.400;2022-11-20T05:07:43;101129.28;;;-0.41;100.00
47104;BME280;32853;52.164;5.400;2022-11-20T05:10:23;101181.75;;;-0.18;100.00
47104;BME280;32853;52.164;5.400;2022-11-20T05:13:09;101157.66;;;-0.29;100.00
47104;BME280;32853;52.164;5.400;2022-11-20T05:15:48;101173.19;;;-0.15;100.00
47104;BME280;32853;52.164;5.400;2022-11-20T05:18:17;101177.44;;;-0.20;100.00
47104;BME280;32853;52.164;5.400;2022-11-20T05:20:43;101181.66;;;-0.25;100.00
47104;BME280;32853;52.164;5.400;2022-11-20T05:23:16;101042.25;;;-0.99;100.00
47104;BME280;32853;52.164;5.400;2022-11-20T05:25:56;101147.28;;;-0.38;100.00
47104;BME280;32853;52.164;5.400;2022-11-20T05:28:34;101174.81;;;-0.25;100.00
47104;BME280;32853;52.164;5.400;2022-11-20T05:31:11;101118.25;;;-0.31;100.00
47104;BME280;32853;52.164;5.400;2022-11-20T05:33:39;101079.31;;;-0.71;100.00
47104;BME280;32853;52.164;5.400;2022-11-20T05:36:05;101128.19;;;-0.65;100.00
47104;BME280;32853;52.164;5.400;2022-11-20T05:38:31;100998.31;;;-1.26;100.00
47104;BME280;32853;52.164;5.400;2022-11-20T05:41:16;101125.13;;;-0.27;100.00
47104;BME280;32853;52.164;5.400;2022-11-20T05:43:45;101142.34;;;-0.20;100.00
47104;BME280;32853;52.164;5.400;2022-11-20T05:46:14;101069.91;;;-0.72;100.00
47104;BME280;32853;52.164;5.400;2022-11-20T05:48:46;101141.28;;;-0.40;100.00
47104;BME280;32853;52.164;5.400;2022-11-20T05:51:18;101048.22;;;-1.00;100.00
47104;BME280;32853;52.164;5.400;2022-11-20T05:53:44;101035.34;;;-1.03;100.00
47104;BME280;32853;52.164;5.400;2022-11-20T05:56:12;101092.00;;;-0.86;100.00
47104;BME280;32853;52.164;5.400;2022-11-20T05:58:39;101144.69;;;-0.43;100.00
47104;BME280;32853;52.164;5.400;2022-11-20T06:01:19;101100.69;;;-0.73;100.00
47104;BME280;32853;52.164;5.400;2022-11-20T06:03:46;101018.84;;;-1.26;100.00
47104;BME280;32853;52.164;5.400;2022-11-20T06:06:19;101148.13;;;-0.41;100.00
47104;BME280;32853;52.164;5.400;2022-11-20T06:08:45;101093.84;;;-0.73;100.00
47104;BME280;32853;52.164;5.400;2022-11-20T06:11:12;101173.06;;;-0.32;100.00
47104;BME280;32853;52.164;5.400;2022-11-20T06:13:38;101037.72;;;-1.21;100.00
47104;BME280;32853;52.164;5.400;2022-11-20T06:16:13;101071.22;;;-1.09;100.00
47104;BME280;32853;52.164;5.400;2022-11-20T06:18:48;100935.22;;;-1.86;100.00
47104;BME280;32853;52.164;5.400;2022-11-20T06:21:18;100898.09;;;-2.17;100.00
47104;BME280;32853;52.164;5.400;2022-11-20T06:23:44;101188.19;;;-0.56;100.00
47104;BME280;32853;52.164;5.400;2022-11-20T06:26:14;100904.06;;;-2.20;100.00
47104;BME280;32853;52.164;5.400;2022-11-20T06:28:41;101104.66;;;-1.01;100.00
47104;BME280;32853;52.164;5.400;2022-11-20T06:31:23;101154.78;;;-0.56;100.00
47104;BME280;32853;52.164;5.400;2022-11-20T06:33:59;100900.66;;;-2.17;100.00
47104;BME280;32853;52.164;5.400;2022-11-20T06:36:41;100918.50;;;-2.25;100.00
47104;BME280;32853;52.164;5.400;2022-11-20T06:39:07;101095.06;;;-1.18;100.00
47104;BME280;32853;52.164;5.400;2022-11-20T06:41:32;101176.91;;;-0.71;100.00
47104;BME280;32853;52.164;5.400;2022-11-20T06:43:57;101008.78;;;-1.79;100.00
47104;BME280;32853;52.164;5.400;2022-11-20T06:46:26;101040.06;;;-1.39;100.00
47104;BME280;32853;52.164;5.400;2022-11-20T06:48:52;101039.38;;;-1.26;100.00
47104;BME280;32853;52.164;5.400;2022-11-20T06:51:33;101210.56;;;-0.48;100.00
47104;BME280;32853;52.164;5.400;2022-11-20T06:54:21;101179.69;;;-0.54;100.00
47104;BME280;32853;52.164;5.400;2022-11-20T06:56:47;101084.81;;;-1.16;100.00
47104;BME280;32853;52.164;5.400;2022-11-20T06:59:22;101213.13;;;-0.49;100.00
47104;BME280;32853;52.164;5.400;2022-11-20T07:01:48;101118.31;;;-1.04;100.00
47104;BME280;32853;52.164;5.400;2022-11-20T07:04:17;101019.31;;;-1.58;100.00
47104;BME280;32853;52.164;5.400;2022-11-20T07:07:25;101165.06;;;-0.58;100.00
47104;BME280;32853;52.164;5.400;2022-11-20T07:09:52;101164.19;;;-0.60;100.00
47104;BME280;32853;52.164;5.400;2022-11-20T07:12:21;101105.50;;;-1.02;100.00
47104;BME280;32853;52.164;5.400;2022-11-20T07:14:52;101156.47;;;-0.60;100.00
47104;BME280;32853;52.164;5.400;2022-11-20T07:17:17;101174.47;;;-0.60;100.00
47104;BME280;32853;52.164;5.400;2022-11-20T07:19:48;100938.50;;;-1.96;100.00
47104;BME280;32853;52.164;5.400;2022-11-20T07:22:31;101162.38;;;-0.67;100.00
47104;BME280;32853;52.164;5.400;2022-11-20T07:25:38;101153.94;;;-0.55;100.00
47104;BME280;32853;52.164;5.400;2022-11-20T07:28:10;100942.94;;;-1.83;100.00
47104;BME280;32853;52.164;5.400;2022-11-20T07:30:35;100880.00;;;-2.31;100.00
47104;BME280;32853;52.164;5.400;2022-11-20T07:33:04;101145.97;;;-0.81;100.00
47104;BME280;32853;52.164;5.400;2022-11-20T07:35:29;100981.44;;;-1.79;100.00
47104;BME280;32853;52.164;5.400;2022-11-20T07:37:57;100908.81;;;-2.44;100.00
47104;BME280;32853;52.164;5.400;2022-11-20T07:40:30;100936.69;;;-2.05;100.00
47104;BME280;32853;52.164;5.400;2022-11-20T07:42:55;101125.41;;;-0.84;100.00
47104;BME280;32853;52.164;5.400;2022-11-20T07:45:35;101064.03;;;-1.37;100.00
47104;BME280;32853;52.164;5.400;2022-11-20T07:48:08;101004.50;;;-1.80;100.00
47104;BME280;32853;52.164;5.400;2022-11-20T07:50:34;100985.72;;;-1.79;100.00
47104;BME280;32853;52.164;5.400;2022-11-20T07:53:03;101154.66;;;-0.70;100.00
47104;BME280;32853;52.164;5.400;2022-11-20T07:55:47;101156.50;;;-0.57;100.00
47104;BME280;32853;52.164;5.400;2022-11-20T07:58:12;101037.31;;;-1.55;100.00
47104;BME280;32853;52.164;5.400;2022-11-20T08:00:46;101041.66;;;-1.51;100.00
47104;BME280;32853;52.164;5.400;2022-11-20T08:06:40;100985.84;;;-1.67;100.00
47104;BME280;32853;52.164;5.400;2022-11-20T08:09:05;101043.34;;;-1.51;100.00
47104;BME280;32853;52.164;5.400;2022-11-20T08:14:58;101023.69;;;-1.49;100.00
47104;BME280;32853;52.164;5.400;2022-11-20T08:20:48;100984.28;;;-1.56;100.00
47104;BME280;32853;52.164;5.400;2022-11-20T08:23:52;101125.78;;;-0.45;100.00
47104;BME280;32853;52.164;5.400;2022-11-20T08:26:38;101135.97;;;-0.57;100.00
47104;BME280;32853;52.164;5.400;2022-11-20T08:29:33;101131.09;;;-0.33;100.00
47104;BME280;32853;52.164;5.400;2022-11-20T08:32:29;101042.25;;;-0.99;100.00
47104;BME280;32853;52.164;5.400;2022-11-20T08:38:31;101092.31;;;-0.55;100.00
47104;BME280;32853;52.164;5.400;2022-11-20T08:41:14;101140.81;;;0.04;100.00
47104;BME280;32853;52.164;5.400;2022-11-20T08:44:23;101139.03;;;-0.02;100.00
47104;BME280;32853;52.164;5.400;2022-11-20T08:46:58;101055.56;;;-0.45;100.00
47104;BME280;32853;52.164;5.400;2022-11-20T08:49:41;101030.69;;;-0.52;100.00
47104;BME280;32853;52.164;5.400;2022-11-20T08:52:07;101013.56;;;-0.52;100.00
47104;BME280;32853;52.164;5.400;2022-11-20T08:54:33;100953.31;;;-0.89;100.00
47104;BME280;32853;52.164;5.400;2022-11-20T08:57:03;101022.22;;;-0.44;100.00
47104;BME280;32853;52.164;5.400;2022-11-20T08:59:35;101030.00;;;-0.32;100.00
47104;BME280;32853;52.164;5.400;2022-11-20T09:05:31;100967.16;;;-0.76;100.00
47104;BME280;32853;52.164;5.400;2022-11-20T09:08:31;101123.00;;;0.29;100.00
47104;BME280;32853;52.164;5.400;2022-11-20T09:11:07;101118.72;;;0.33;100.00
47104;BME280;32853;52.164;5.400;2022-11-20T09:13:36;101117.91;;;0.39;100.00
47104;BME280;32853;52.164;5.400;2022-11-20T09:16:07;100981.91;;;-0.48;100.00
47104;BME280;32853;52.164;5.400;2022-11-20T09:18:44;101118.84;;;0.53;100.00
47104;BME280;32853;52.164;5.400;2022-11-20T09:21:26;100830.78;;;-1.11;100.00
47104;BME280;32853;52.164;5.400;2022-11-20T09:24:19;101106.88;;;0.63;100.00
47104;BME280;32853;52.164;5.400;2022-11-20T09:30:34;101070.69;;;0.32;100.00
47104;BME280;32853;52.164;5.400;2022-11-20T09:33:06;100846.47;;;-0.70;100.00
47104;BME280;32853;52.164;5.400;2022-11-20T09:36:10;101078.66;;;0.79;100.00
47104;BME280;32853;52.164;5.400;2022-11-20T09:54:43;101066.75;;;1.32;100.00
47104;BME280;32853;52.164;5.400;2022-11-20T09:57:35;101072.81;;;1.44;100.00
47104;BME280;32853;52.164;5.400;2022-11-20T10:00:15;100802.22;;;-0.17;100.00
47104;BME280;32853;52.164;5.400;2022-11-20T10:02:56;101059.06;;;1.35;100.00
47104;BME280;32853;52.164;5.400;2022-11-20T10:05:28;100890.66;;;0.44;100.00
47104;BME280;32853;52.164;5.400;2022-11-20T10:11:13;101047.91;;;1.56;100.00
47104;BME280;32853;52.164;5.400;2022-11-20T10:26:21;101020.34;;;2.13;100.00
47104;BME280;32853;52.164;5.400;2022-11-20T10:29:34;100812.63;;;0.85;100.00
47104;BME280;32853;52.164;5.400;2022-11-20T10:32:33;101010.84;;;2.27;100.00
47104;BME280;32853;52.164;5.400;2022-11-20T10:35:28;101008.25;;;2.35;100.00
47104;BME280;32853;52.164;5.400;2022-11-20T10:41:40;100870.91;;;1.58;100.00
47104;BME280;32853;52.164;5.400;2022-11-20T10:47:36;101015.09;;;2.37;100.00
47104;BME280;32853;52.164;5.400;2022-11-20T10:50:27;100981.50;;;2.55;100.00
47104;BME280;32853;52.164;5.400;2022-11-20T10:56:24;100756.78;;;1.16;100.00
47104;BME280;32853;52.164;5.400;2022-11-20T11:08:24;100956.28;;;2.96;100.00
47104;BME280;32853;52.164;5.400;2022-11-20T11:11:28;100949.38;;;2.96;100.00
47104;BME280;32853;52.164;5.400;2022-11-20T11:17:02;100932.84;;;3.17;100.00
47104;BME280;32853;52.164;5.400;2022-11-20T12:10:33;100813.53;;;3.60;100.00
47104;BME280;32853;52.164;5.400;2022-11-20T12:20:39;100841.56;;;3.95;100.00
47104;BME280;32853;52.164;5.400;2022-11-20T12:23:40;100814.06;;;3.86;100.00
47104;BME280;32853;52.164;5.400;2022-11-20T13:38:06;100682.81;;;4.50;100.00
47104;BME280;32853;52.164;5.400;2022-11-20T15:56:17;100465.19;;;4.56;100.00
47104;BME280;32853;52.164;5.400;2022-11-20T16:13:14;100420.88;;;5.05;100.00
47104;BME280;32853;52.164;5.400;2022-11-20T16:23:17;100416.56;;;5.06;100.00
47104;BME280;32853;52.164;5.400;2022-11-20T16:26:50;100276.19;;;4.17;100.00
47104;BME280;32853;52.164;5.400;2022-11-20T16:30:24;100409.97;;;4.92;100.00
47104;BME280;32853;52.164;5.400;2022-11-20T16:40:34;100205.97;;;3.57;100.00
47104;BME280;32853;52.164;5.400;2022-11-20T16:43:26;100253.16;;;4.05;100.00
47104;BME280;32853;52.164;5.400;2022-11-20T16:45:52;100241.81;;;4.12;100.00
47104;BME280;32853;52.164;5.400;2022-11-20T16:48:18;100261.75;;;4.44;100.00
47104;BME280;32853;52.164;5.400;2022-11-20T16:50:51;100160.59;;;3.81;100.00
47104;BME280;32853;52.164;5.400;2022-11-20T16:53:22;100340.03;;;4.91;100.00
47104;BME280;32853;52.164;5.400;2022-11-20T16:55:49;100369.63;;;5.16;100.00
47104;BME280;32853;52.164;5.400;2022-11-20T16:58:18;100248.09;;;4.37;100.00
47104;BME280;32853;52.164;5.400;2022-11-20T17:00:43;100248.22;;;4.31;100.00
47104;BME280;32853;52.164;5.400;2022-11-20T17:03:09;100303.81;;;4.89;100.00
47104;BME280;32853;52.164;5.400;2022-11-20T17:05:36;100358.28;;;5.20;100.00
47104;BME280;32853;52.164;5.400;2022-11-20T17:08:01;100356.94;;;4.70;100.00
47104;BME280;32853;52.164;5.400;2022-11-20T17:10:34;100363.28;;;4.94;100.00
47104;BME280;32853;52.164;5.400;2022-11-20T17:13:00;100259.47;;;4.68;100.00
47104;BME280;32853;52.164;5.400;2022-11-20T17:15:27;100351.66;;;5.10;100.00
47104;BME280;32853;52.164;5.400;2022-11-20T17:17:54;100219.47;;;4.08;100.00
47104;BME280;32853;52.164;5.400;2022-11-20T17:20:19;100350.50;;;4.88;100.00
47104;BME280;32853;52.164;5.400;2022-11-20T17:22:50;100163.72;;;3.95;100.00
47104;BME280;32853;52.164;5.400;2022-11-20T17:25:34;100362.56;;;5.23;100.00
47104;BME280;32853;52.164;5.400;2022-11-20T17:28:42;100343.94;;;5.07;100.00
47104;BME280;32853;52.164;5.400;2022-11-20T17:31:12;100329.19;;;5.11;100.00
47104;BME280;32853;52.164;5.400;2022-11-20T17:33:59;100340.91;;;5.25;100.00
47104;BME280;32853;52.164;5.400;2022-11-20T17:36:31;100334.44;;;5.08;100.00
47104;BME280;32853;52.164;5.400;2022-11-20T17:39:20;100335.53;;;4.99;100.00
47104;BME280;32853;52.164;5.400;2022-11-20T17:41:54;100349.34;;;5.00;100.00
47104;BME280;32853;52.164;5.400;2022-11-20T17:47:55;100355.47;;;5.30;100.00
47104;BME280;32853;52.164;5.400;2022-11-20T17:50:23;100288.31;;;4.88;100.00
47104;BME280;32853;52.164;5.400;2022-11-20T17:52:49;100231.34;;;4.52;100.00
47104;BME280;32853;52.164;5.400;2022-11-20T17:55:14;100278.09;;;4.82;100.00
47104;BME280;32853;52.164;5.400;2022-11-20T17:58:16;100345.88;;;5.33;100.00
47104;BME280;32853;52.164;5.400;2022-11-20T18:01:04;100343.66;;;5.18;100.00
47104;BME280;32853;52.164;5.400;2022-11-20T18:07:06;100355.16;;;5.08;100.00
47104;BME280;32853;52.164;5.400;2022-11-20T18:10:00;100280.09;;;4.71;100.00
47104;BME280;32853;52.164;5.400;2022-11-20T18:12:29;100348.63;;;5.27;100.00
47104;BME280;32853;52.164;5.400;2022-11-20T18:15:41;100235.47;;;4.59;100.00
47104;BME280;32853;52.164;5.400;2022-11-20T18:18:34;100343.22;;;5.36;100.00
47104;BME280;32853;52.164;5.400;2022-11-20T18:21:06;100320.16;;;5.25;100.00
47104;BME280;32853;52.164;5.400;2022-11-20T18:23:36;100210.69;;;4.49;100.00
47104;BME280;32853;52.164;5.400;2022-11-20T18:26:09;100333.78;;;5.34;100.00
47104;BME280;32853;52.164;5.400;2022-11-20T18:28:52;100363.88;;;5.39;100.00
47104;BME280;32853;52.164;5.400;2022-11-20T18:32:19;100357.81;;;5.39;100.00
47104;BME280;32853;52.164;5.400;2022-11-20T18:34:45;100337.56;;;5.20;100.00
47104;BME280;32853;52.164;5.400;2022-11-20T18:38:17;100360.22;;;5.46;100.00
47104;BME280;32853;52.164;5.400;2022-11-20T18:41:03;100287.34;;;4.92;100.00
47104;BME280;32853;52.164;5.400;2022-11-20T18:43:33;100280.06;;;4.72;100.00
47104;BME280;32853;52.164;5.400;2022-11-20T18:46:19;100247.28;;;4.71;100.00
47104;BME280;32853;52.164;5.400;2022-11-20T18:48:50;100361.16;;;5.10;100.00
47104;BME280;32853;52.164;5.400;2022-11-20T18:51:43;100368.44;;;5.30;100.00
47104;BME280;32853;52.164;5.400;2022-11-20T18:54:20;100382.06;;;5.38;100.00
47104;BME280;32853;52.164;5.400;2022-11-20T18:57:08;100374.16;;;5.42;100.00
47104;BME280;32853;52.164;5.400;2022-11-20T18:59:57;100385.25;;;5.47;100.00
47104;BME280;32853;52.164;5.400;2022-11-20T19:02:52;100379.81;;;5.58;100.00
47104;BME280;32853;52.164;5.400;2022-11-20T19:05:26;100097.34;;;3.94;100.00
47104;BME280;32853;52.164;5.400;2022-11-20T19:11:19;100316.06;;;5.17;100.00
47104;BME280;32853;52.164;5.400;2022-11-20T19:16:59;100375.56;;;5.56;100.00
47104;BME280;32853;52.164;5.400;2022-11-20T19:19:43;100366.25;;;5.47;100.00
47104;BME280;32853;52.164;5.400;2022-11-20T19:22:09;100377.63;;;5.41;100.00
47104;BME280;32853;52.164;5.400;2022-11-20T19:24:35;100333.47;;;5.12;100.00
47104;BME280;32853;52.164;5.400;2022-11-20T19:27:00;100376.16;;;5.31;100.00
47104;BME280;32853;52.164;5.400;2022-11-20T19:29:29;100372.16;;;5.52;100.00
47104;BME280;32853;52.164;5.400;2022-11-20T19:31:54;100250.00;;;4.65;100.00
47104;BME280;32853;52.164;5.400;2022-11-20T19:34:32;100383.84;;;5.36;100.00
47104;BME280;32853;52.164;5.400;2022-11-20T19:37:11;100207.41;;;4.43;100.00
47104;BME280;32853;52.164;5.400;2022-11-20T19:39:40;100380.72;;;5.23;100.00
47104;BME280;32853;52.164;5.400;2022-11-20T19:42:11;100354.66;;;5.28;100.00
47104;BME280;32853;52.164;5.400;2022-11-20T19:44:54;100204.84;;;4.41;100.00
47104;BME280;32853;52.164;5.400;2022-11-20T19:47:27;100131.44;;;3.74;100.00
47104;BME280;32853;52.164;5.400;2022-11-20T19:49:55;100124.09;;;3.57;100.00
47104;BME280;32853;52.164;5.400;2022-11-20T19:52:28;100351.69;;;5.09;100.00
47104;BME280;32853;52.164;5.400;2022-11-20T19:55:04;100367.66;;;4.92;100.00